Mill Run, PA (15464)

3:49 PM EST on December 21, 2014 (GMT -0500)
KPACONFL2 | Change Station
CLOSE
Current Station
Personal Weather Station
Location: Confluence, PA
Elevation: 1336 ft
Nearby Weather Stations

Elev 1336 ft 39.81 °N, 79.36 °W | Updated 1 second ago

Partly Cloudy
Partly Cloudy
40.4 °F
Feels Like 40 °F
N
0.0
Wind Variable Wind from WNW
Gusts 3.0 mph

Today
High -- | Low -- °F
--% Chance of Precip.
Yesterday
High -- | Low -- °F
Precip. -- in
7:36 AM 4:55 PM
Waning Crescent, 0% visible
Pressure 30.26 in
Visibility 10.0 miles
Clouds Overcast 3900 ft
Windchill 40 °F
Dew Point 29 °F
Humidity 63%
Rainfall 0.00 in
Snow Depth Not available.
UV 0 out of 12
Pollen .10 out of 12
Air Quality Not available.
Flu Activity Not available.
METAR KLBE 211945Z 00000KT 10SM OVC039 00/M05 A3026

More Conditions Fewer Conditions

Pressure 30.26 in
Visibility 10.0 miles
Clouds Overcast 3900 ft
Windchill 40 °F
Dew Point 29 °F
Humidity 63%
Rainfall 0.00 in
Snow Depth Not available.
UV 0 out of 12
Pollen .10 out of 12
Air Quality Not available.
Flu Activity Not available.
METAR KLBE 211945Z 00000KT 10SM OVC039 00/M05 A3026

More Conditions Fewer Conditions

10-Day Weather Forecast

Almanac

Astronomy

Dec. 21, 2014 Rise Set
Actual Time
Civil Twilight
Nautical Twilight
Astronomical Twilight
Moon
Length of Visible Light
Length of Day
Tomorrow will be .
, % of the Moon is Illuminated

Today's Extremes

State Highs State Lows

Community

WunderPhotos

Upload Photos

1,779,471 photos uploaded!

WunderBlogs® & News

Nearby

Air Quality

  Air Quality AQ Index Pollutant
Not available.

Snow Depth

Station Depth Elevation

Earthquake Activity

City Distance Mag. Time & Date
Minimum magnitude displayed is 2.5.

Coastal Water Temperatures

Place Temperature

Nearby Weather Stations